sensor_id;sensor_type;location;lat;lon;timestamp;temperature;humidity
23550;DHT22;11953;49.010;8.608;2023-04-10T00:01:35;6.30;99.90
23550;DHT22;11953;49.010;8.608;2023-04-10T00:04:23;6.30;99.90
23550;DHT22;11953;49.010;8.608;2023-04-10T00:07:09;6.40;99.90
23550;DHT22;11953;49.010;8.608;2023-04-10T00:09:57;6.50;99.90
23550;DHT22;11953;49.010;8.608;2023-04-10T00:12:45;6.50;99.90
23550;DHT22;11953;49.010;8.608;2023-04-10T00:15:31;6.50;99.90
23550;DHT22;11953;49.010;8.608;2023-04-10T00:18:18;6.40;99.90
23550;DHT22;11953;49.010;8.608;2023-04-10T00:21:05;6.30;99.90
23550;DHT22;11953;49.010;8.608;2023-04-10T00:23:52;6.30;99.90
23550;DHT22;11953;49.010;8.608;2023-04-10T00:26:39;6.30;99.90
23550;DHT22;11953;49.010;8.608;2023-04-10T00:29:27;6.30;99.90
23550;DHT22;11953;49.010;8.608;2023-04-10T00:32:14;6.40;99.90
23550;DHT22;11953;49.010;8.608;2023-04-10T00:35:02;6.40;99.90
23550;DHT22;11953;49.010;8.608;2023-04-10T00:37:49;6.50;99.90
23550;DHT22;11953;49.010;8.608;2023-04-10T00:40:36;6.50;99.90
23550;DHT22;11953;49.010;8.608;2023-04-10T00:43:22;6.60;99.90
23550;DHT22;11953;49.010;8.608;2023-04-10T00:46:10;6.60;99.90
23550;DHT22;11953;49.010;8.608;2023-04-10T00:48:57;6.70;99.90
23550;DHT22;11953;49.010;8.608;2023-04-10T00:51:45;6.70;99.90
23550;DHT22;11953;49.010;8.608;2023-04-10T00:54:34;6.60;99.90
23550;DHT22;11953;49.010;8.608;2023-04-10T00:57:20;6.60;99.90
23550;DHT22;11953;49.010;8.608;2023-04-10T01:00:08;6.60;99.90
23550;DHT22;11953;49.010;8.608;2023-04-10T01:02:56;6.70;99.90
23550;DHT22;11953;49.010;8.608;2023-04-10T01:05:51;6.80;99.90
23550;DHT22;11953;49.010;8.608;2023-04-10T01:08:46;6.80;99.90
23550;DHT22;11953;49.010;8.608;2023-04-10T01:11:43;6.80;99.90
23550;DHT22;11953;49.010;8.608;2023-04-10T01:14:36;6.90;99.90
23550;DHT22;11953;49.010;8.608;2023-04-10T01:17:29;7.00;99.90
23550;DHT22;11953;49.010;8.608;2023-04-10T01:20:22;7.10;99.90
23550;DHT22;11953;49.010;8.608;2023-04-10T01:26:41;7.30;99.90
23550;DHT22;11953;49.010;8.608;2023-04-10T01:29:35;7.40;99.90
23550;DHT22;11953;49.010;8.608;2023-04-10T01:32:30;7.40;99.90
23550;DHT22;11953;49.010;8.608;2023-04-10T01:35:21;7.50;99.90
23550;DHT22;11953;49.010;8.608;2023-04-10T01:38:10;7.50;99.90
23550;DHT22;11953;49.010;8.608;2023-04-10T01:40:58;7.50;99.90
23550;DHT22;11953;49.010;8.608;2023-04-10T01:43:49;7.50;99.90
23550;DHT22;11953;49.010;8.608;2023-04-10T01:46:38;7.40;99.90
23550;DHT22;11953;49.010;8.608;2023-04-10T01:49:27;7.40;99.90
23550;DHT22;11953;49.010;8.608;2023-04-10T01:52:20;7.40;99.90
23550;DHT22;11953;49.010;8.608;2023-04-10T01:55:19;7.30;99.90
23550;DHT22;11953;49.010;8.608;2023-04-10T01:58:11;7.30;99.90
23550;DHT22;11953;49.010;8.608;2023-04-10T02:00:58;7.30;99.90
23550;DHT22;11953;49.010;8.608;2023-04-10T02:03:47;7.20;99.90
23550;DHT22;11953;49.010;8.608;2023-04-10T02:06:40;7.20;99.90
23550;DHT22;11953;49.010;8.608;2023-04-10T02:09:38;7.10;99.90
23550;DHT22;11953;49.010;8.608;2023-04-10T02:12:28;7.10;99.90
23550;DHT22;11953;49.010;8.608;2023-04-10T02:15:17;7.20;99.90
23550;DHT22;11953;49.010;8.608;2023-04-10T02:18:05;7.20;99.90
23550;DHT22;11953;49.010;8.608;2023-04-10T02:20:55;7.10;99.90
23550;DHT22;11953;49.010;8.608;2023-04-10T02:23:42;7.20;99.90
23550;DHT22;11953;49.010;8.608;2023-04-10T02:26:28;7.00;99.90
23550;DHT22;11953;49.010;8.608;2023-04-10T02:29:15;6.90;99.90
23550;DHT22;11953;49.010;8.608;2023-04-10T02:32:02;6.70;99.90
23550;DHT22;11953;49.010;8.608;2023-04-10T02:34:49;6.60;99.90
23550;DHT22;11953;49.010;8.608;2023-04-10T02:37:37;6.70;99.90
23550;DHT22;11953;49.010;8.608;2023-04-10T02:40:26;6.80;99.90
23550;DHT22;11953;49.010;8.608;2023-04-10T02:43:33;6.80;99.90
23550;DHT22;11953;49.010;8.608;2023-04-10T02:46:20;6.70;99.90
23550;DHT22;11953;49.010;8.608;2023-04-10T02:49:07;6.70;99.90
23550;DHT22;11953;49.010;8.608;2023-04-10T02:51:54;6.40;99.90
23550;DHT22;11953;49.010;8.608;2023-04-10T02:54:42;6.30;99.90
23550;DHT22;11953;49.010;8.608;2023-04-10T02:57:29;6.30;99.90
23550;DHT22;11953;49.010;8.608;2023-04-10T03:00:17;6.30;99.90
23550;DHT22;11953;49.010;8.608;2023-04-10T03:03:26;6.10;99.90
23550;DHT22;11953;49.010;8.608;2023-04-10T03:06:14;5.90;99.90
23550;DHT22;11953;49.010;8.608;2023-04-10T03:09:03;5.90;99.90
23550;DHT22;11953;49.010;8.608;2023-04-10T03:11:52;5.80;99.90
23550;DHT22;11953;49.010;8.608;2023-04-10T03:14:39;5.60;99.90
23550;DHT22;11953;49.010;8.608;2023-04-10T03:17:26;5.50;99.90
23550;DHT22;11953;49.010;8.608;2023-04-10T03:20:13;5.30;99.90
23550;DHT22;11953;49.010;8.608;2023-04-10T03:23:00;5.10;99.90
23550;DHT22;11953;49.010;8.608;2023-04-10T03:25:49;5.10;99.90
23550;DHT22;11953;49.010;8.608;2023-04-10T03:28:38;4.90;99.90
23550;DHT22;11953;49.010;8.608;2023-04-10T03:31:28;4.70;99.90
23550;DHT22;11953;49.010;8.608;2023-04-10T03:34:18;4.80;99.90
23550;DHT22;11953;49.010;8.608;2023-04-10T03:37:05;4.80;99.90
23550;DHT22;11953;49.010;8.608;2023-04-10T03:39:52;5.00;99.90
23550;DHT22;11953;49.010;8.608;2023-04-10T03:42:39;5.00;99.90
23550;DHT22;11953;49.010;8.608;2023-04-10T03:45:27;5.00;99.90
23550;DHT22;11953;49.010;8.608;2023-04-10T03:48:13;5.00;99.90
23550;DHT22;11953;49.010;8.608;2023-04-10T03:51:04;5.10;99.90
23550;DHT22;11953;49.010;8.608;2023-04-10T03:53:50;5.20;99.90
23550;DHT22;11953;49.010;8.608;2023-04-10T03:56:38;5.40;99.90
23550;DHT22;11953;49.010;8.608;2023-04-10T03:59:25;5.40;99.90
23550;DHT22;11953;49.010;8.608;2023-04-10T04:02:28;5.60;99.90
23550;DHT22;11953;49.010;8.608;2023-04-10T04:05:15;5.70;99.90
23550;DHT22;11953;49.010;8.608;2023-04-10T04:08:09;5.80;99.90
23550;DHT22;11953;49.010;8.608;2023-04-10T04:11:16;5.90;99.90
23550;DHT22;11953;49.010;8.608;2023-04-10T04:14:29;6.10;99.90
23550;DHT22;11953;49.010;8.608;2023-04-10T04:17:36;6.10;99.90
23550;DHT22;11953;49.010;8.608;2023-04-10T04:20:23;6.10;99.90
23550;DHT22;11953;49.010;8.608;2023-04-10T04:23:30;6.10;99.90
23550;DHT22;11953;49.010;8.608;2023-04-10T04:26:55;6.10;99.90
23550;DHT22;11953;49.010;8.608;2023-04-10T04:30:00;6.10;99.90
23550;DHT22;11953;49.010;8.608;2023-04-10T04:33:04;6.10;99.90
23550;DHT22;11953;49.010;8.608;2023-04-10T04:36:19;6.20;99.90
23550;DHT22;11953;49.010;8.608;2023-04-10T04:39:22;6.30;99.90
23550;DHT22;11953;49.010;8.608;2023-04-10T04:42:20;6.30;99.90
23550;DHT22;11953;49.010;8.608;2023-04-10T04:45:29;6.40;99.90
23550;DHT22;11953;49.010;8.608;2023-04-10T04:48:27;6.40;99.90
23550;DHT22;11953;49.010;8.608;2023-04-10T04:51:41;6.40;99.90
23550;DHT22;11953;49.010;8.608;2023-04-10T04:54:42;6.40;99.90
23550;DHT22;11953;49.010;8.608;2023-04-10T04:57:49;6.40;99.90
23550;DHT22;11953;49.010;8.608;2023-04-10T05:00:44;6.40;99.90
23550;DHT22;11953;49.010;8.608;2023-04-10T05:03:51;6.30;99.90
23550;DHT22;11953;49.010;8.608;2023-04-10T05:06:53;6.30;99.90
23550;DHT22;11953;49.010;8.608;2023-04-10T05:10:08;6.40;99.90
23550;DHT22;11953;49.010;8.608;2023-04-10T05:13:18;6.60;99.90
23550;DHT22;11953;49.010;8.608;2023-04-10T05:16:14;6.60;99.90
23550;DHT22;11953;49.010;8.608;2023-04-10T05:19:21;6.60;99.90
23550;DHT22;11953;49.010;8.608;2023-04-10T05:22:30;6.70;99.90
23550;DHT22;11953;49.010;8.608;2023-04-10T05:25:44;6.90;99.90
23550;DHT22;11953;49.010;8.608;2023-04-10T05:28:37;7.20;99.90
23550;DHT22;11953;49.010;8.608;2023-04-10T05:31:43;7.20;99.90
23550;DHT22;11953;49.010;8.608;2023-04-10T05:34:38;7.30;99.90
23550;DHT22;11953;49.010;8.608;2023-04-10T05:37:44;7.30;99.90
23550;DHT22;11953;49.010;8.608;2023-04-10T05:41:03;7.40;99.90
23550;DHT22;11953;49.010;8.608;2023-04-10T05:43:55;7.20;99.90
23550;DHT22;11953;49.010;8.608;2023-04-10T05:46:49;7.10;99.90
23550;DHT22;11953;49.010;8.608;2023-04-10T05:49:53;7.20;99.90
23550;DHT22;11953;49.010;8.608;2023-04-10T05:52:54;7.30;99.90
23550;DHT22;11953;49.010;8.608;2023-04-10T05:55:58;7.40;99.90
23550;DHT22;11953;49.010;8.608;2023-04-10T05:59:03;7.40;99.90
23550;DHT22;11953;49.010;8.608;2023-04-10T06:02:00;7.70;99.90
23550;DHT22;11953;49.010;8.608;2023-04-10T06:04:47;7.90;99.90
23550;DHT22;11953;49.010;8.608;2023-04-10T06:07:36;8.10;99.90
23550;DHT22;11953;49.010;8.608;2023-04-10T06:10:24;8.60;99.90
23550;DHT22;11953;49.010;8.608;2023-04-10T06:13:14;9.20;99.90
23550;DHT22;11953;49.010;8.608;2023-04-10T06:16:01;10.00;99.90
23550;DHT22;11953;49.010;8.608;2023-04-10T06:18:49;10.40;99.90
23550;DHT22;11953;49.010;8.608;2023-04-10T06:21:37;11.00;99.90
23550;DHT22;11953;49.010;8.608;2023-04-10T06:24:25;11.50;99.90
23550;DHT22;11953;49.010;8.608;2023-04-10T06:27:12;11.40;99.90
23550;DHT22;11953;49.010;8.608;2023-04-10T06:29:59;11.60;99.90
23550;DHT22;11953;49.010;8.608;2023-04-10T06:32:46;11.60;99.90
23550;DHT22;11953;49.010;8.608;2023-04-10T06:35:33;12.00;99.90
23550;DHT22;11953;49.010;8.608;2023-04-10T06:38:21;12.20;99.90
23550;DHT22;11953;49.010;8.608;2023-04-10T06:41:09;13.00;99.90
23550;DHT22;11953;49.010;8.608;2023-04-10T06:43:56;13.30;99.90
23550;DHT22;11953;49.010;8.608;2023-04-10T06:46:46;14.00;99.90
23550;DHT22;11953;49.010;8.608;2023-04-10T06:49:33;14.00;99.60
23550;DHT22;11953;49.010;8.608;2023-04-10T06:52:19;13.70;99.30
23550;DHT22;11953;49.010;8.608;2023-04-10T06:55:06;14.00;98.90
23550;DHT22;11953;49.010;8.608;2023-04-10T06:57:54;13.80;98.70
23550;DHT22;11953;49.010;8.608;2023-04-10T07:00:41;14.10;98.70
23550;DHT22;11953;49.010;8.608;2023-04-10T07:03:28;14.30;98.70
23550;DHT22;11953;49.010;8.608;2023-04-10T07:06:15;14.90;97.50
23550;DHT22;11953;49.010;8.608;2023-04-10T07:09:01;15.80;95.70
23550;DHT22;11953;49.010;8.608;2023-04-10T07:11:48;16.10;95.30
23550;DHT22;11953;49.010;8.608;2023-04-10T07:14:36;16.40;94.10
23550;DHT22;11953;49.010;8.608;2023-04-10T07:17:23;16.30;93.70
23550;DHT22;11953;49.010;8.608;2023-04-10T07:20:11;16.10;93.40
23550;DHT22;11953;49.010;8.608;2023-04-10T07:22:57;15.60;93.60
23550;DHT22;11953;49.010;8.608;2023-04-10T07:25:45;15.80;93.50
23550;DHT22;11953;49.010;8.608;2023-04-10T07:28:32;15.90;92.50
23550;DHT22;11953;49.010;8.608;2023-04-10T07:31:20;15.50;90.90
23550;DHT22;11953;49.010;8.608;2023-04-10T07:34:09;15.60;92.10
23550;DHT22;11953;49.010;8.608;2023-04-10T07:36:56;15.40;92.40
23550;DHT22;11953;49.010;8.608;2023-04-10T07:39:42;15.20;92.00
23550;DHT22;11953;49.010;8.608;2023-04-10T07:42:29;14.80;92.80
23550;DHT22;11953;49.010;8.608;2023-04-10T07:45:16;15.30;92.20
23550;DHT22;11953;49.010;8.608;2023-04-10T07:48:05;16.10;92.30
23550;DHT22;11953;49.010;8.608;2023-04-10T07:50:52;16.20;91.10
23550;DHT22;11953;49.010;8.608;2023-04-10T07:53:39;16.40;91.30
23550;DHT22;11953;49.010;8.608;2023-04-10T07:56:26;16.40;91.40
23550;DHT22;11953;49.010;8.608;2023-04-10T07:59:15;16.90;91.20
23550;DHT22;11953;49.010;8.608;2023-04-10T08:02:02;16.50;90.30
23550;DHT22;11953;49.010;8.608;2023-04-10T08:04:51;16.80;89.80
23550;DHT22;11953;49.010;8.608;2023-04-10T08:07:38;16.10;90.10
23550;DHT22;11953;49.010;8.608;2023-04-10T08:10:24;16.40;90.10
23550;DHT22;11953;49.010;8.608;2023-04-10T08:13:11;16.40;85.20
23550;DHT22;11953;49.010;8.608;2023-04-10T08:15:58;16.90;85.00
23550;DHT22;11953;49.010;8.608;2023-04-10T08:18:45;16.70;83.50
23550;DHT22;11953;49.010;8.608;2023-04-10T08:21:33;15.90;83.00
23550;DHT22;11953;49.010;8.608;2023-04-10T08:24:20;15.70;84.50
23550;DHT22;11953;49.010;8.608;2023-04-10T08:27:07;16.40;81.20
23550;DHT22;11953;49.010;8.608;2023-04-10T08:29:54;16.30;82.90
23550;DHT22;11953;49.010;8.608;2023-04-10T08:32:40;16.10;82.10
23550;DHT22;11953;49.010;8.608;2023-04-10T08:35:27;16.40;82.00
23550;DHT22;11953;49.010;8.608;2023-04-10T08:38:16;16.10;80.70
23550;DHT22;11953;49.010;8.608;2023-04-10T08:41:03;16.20;81.60
23550;DHT22;11953;49.010;8.608;2023-04-10T08:43:50;15.90;79.70
23550;DHT22;11953;49.010;8.608;2023-04-10T08:46:41;16.60;79.10
23550;DHT22;11953;49.010;8.608;2023-04-10T08:49:31;16.90;78.50
23550;DHT22;11953;49.010;8.608;2023-04-10T08:52:24;17.60;77.00
23550;DHT22;11953;49.010;8.608;2023-04-10T08:55:13;17.60;75.70
23550;DHT22;11953;49.010;8.608;2023-04-10T08:57:59;17.90;74.20
23550;DHT22;11953;49.010;8.608;2023-04-10T09:00:47;16.90;73.60
23550;DHT22;11953;49.010;8.608;2023-04-10T09:03:33;17.20;74.90
23550;DHT22;11953;49.010;8.608;2023-04-10T09:06:20;17.10;73.70
23550;DHT22;11953;49.010;8.608;2023-04-10T09:09:07;17.10;72.90
23550;DHT22;11953;49.010;8.608;2023-04-10T09:12:00;17.00;73.90
23550;DHT22;11953;49.010;8.608;2023-04-10T09:14:48;17.00;72.40
23550;DHT22;11953;49.010;8.608;2023-04-10T09:17:37;17.40;74.00
23550;DHT22;11953;49.010;8.608;2023-04-10T09:20:25;17.50;69.50
23550;DHT22;11953;49.010;8.608;2023-04-10T09:23:19;17.50;68.10
23550;DHT22;11953;49.010;8.608;2023-04-10T09:26:22;17.10;71.10
23550;DHT22;11953;49.010;8.608;2023-04-10T09:29:10;17.20;69.90
23550;DHT22;11953;49.010;8.608;2023-04-10T09:31:57;17.70;72.40
23550;DHT22;11953;49.010;8.608;2023-04-10T09:34:52;18.20;71.90
23550;DHT22;11953;49.010;8.608;2023-04-10T09:37:40;18.20;70.00
23550;DHT22;11953;49.010;8.608;2023-04-10T09:40:27;18.40;68.50
23550;DHT22;11953;49.010;8.608;2023-04-10T09:43:21;18.20;70.50
23550;DHT22;11953;49.010;8.608;2023-04-10T09:46:09;18.10;68.90
23550;DHT22;11953;49.010;8.608;2023-04-10T09:48:57;18.20;71.90
23550;DHT22;11953;49.010;8.608;2023-04-10T09:51:45;18.50;69.90
23550;DHT22;11953;49.010;8.608;2023-04-10T09:54:37;18.60;68.80
23550;DHT22;11953;49.010;8.608;2023-04-10T09:57:25;18.00;69.70
23550;DHT22;11953;49.010;8.608;2023-04-10T10:00:13;18.10;69.80
23550;DHT22;11953;49.010;8.608;2023-04-10T10:03:04;18.10;70.10
23550;DHT22;11953;49.010;8.608;2023-04-10T10:05:53;18.10;68.60
23550;DHT22;11953;49.010;8.608;2023-04-10T10:08:40;18.60;70.60
23550;DHT22;11953;49.010;8.608;2023-04-10T10:11:27;19.10;69.80
23550;DHT22;11953;49.010;8.608;2023-04-10T10:14:17;18.20;68.20
23550;DHT22;11953;49.010;8.608;2023-04-10T10:17:07;18.30;67.70
23550;DHT22;11953;49.010;8.608;2023-04-10T10:20:03;18.20;67.30
23550;DHT22;11953;49.010;8.608;2023-04-10T10:22:50;18.40;66.70
23550;DHT22;11953;49.010;8.608;2023-04-10T10:25:38;18.20;66.70
23550;DHT22;11953;49.010;8.608;2023-04-10T10:28:27;18.20;65.20
23550;DHT22;11953;49.010;8.608;2023-04-10T10:31:17;18.10;64.30
23550;DHT22;11953;49.010;8.608;2023-04-10T10:34:05;18.10;62.10
23550;DHT22;11953;49.010;8.608;2023-04-10T10:36:54;19.20;64.30
23550;DHT22;11953;49.010;8.608;2023-04-10T10:39:49;19.70;60.60
23550;DHT22;11953;49.010;8.608;2023-04-10T10:42:41;19.60;59.50
23550;DHT22;11953;49.010;8.608;2023-04-10T10:45:33;19.90;58.50
23550;DHT22;11953;49.010;8.608;2023-04-10T10:48:22;20.40;58.30
23550;DHT22;11953;49.010;8.608;2023-04-10T10:51:08;19.90;55.70
23550;DHT22;11953;49.010;8.608;2023-04-10T10:53:57;20.00;55.60
23550;DHT22;11953;49.010;8.608;2023-04-10T10:56:44;20.30;56.00
23550;DHT22;11953;49.010;8.608;2023-04-10T10:59:52;20.40;56.00
23550;DHT22;11953;49.010;8.608;2023-04-10T11:02:39;19.90;54.60
23550;DHT22;11953;49.010;8.608;2023-04-10T11:05:48;19.60;54.70
23550;DHT22;11953;49.010;8.608;2023-04-10T11:08:40;19.80;55.20
23550;DHT22;11953;49.010;8.608;2023-04-10T11:11:29;20.00;54.50
23550;DHT22;11953;49.010;8.608;2023-04-10T11:14:18;19.90;54.70
23550;DHT22;11953;49.010;8.608;2023-04-10T11:17:05;19.90;54.90
23550;DHT22;11953;49.010;8.608;2023-04-10T11:19:56;20.20;54.30
23550;DHT22;11953;49.010;8.608;2023-04-10T11:23:06;20.40;54.10
23550;DHT22;11953;49.010;8.608;2023-04-10T11:25:53;20.90;53.80
23550;DHT22;11953;49.010;8.608;2023-04-10T11:28:41;19.90;53.80
23550;DHT22;11953;49.010;8.608;2023-04-10T11:31:28;19.70;53.60
23550;DHT22;11953;49.010;8.608;2023-04-10T11:34:15;19.90;53.50
23550;DHT22;11953;49.010;8.608;2023-04-10T11:37:03;20.20;52.40
23550;DHT22;11953;49.010;8.608;2023-04-10T11:40:02;20.20;52.50
23550;DHT22;11953;49.010;8.608;2023-04-10T11:42:49;20.00;53.20
23550;DHT22;11953;49.010;8.608;2023-04-10T11:45:37;19.80;53.70
23550;DHT22;11953;49.010;8.608;2023-04-10T11:48:24;19.50;53.60
23550;DHT22;11953;49.010;8.608;2023-04-10T11:51:12;19.40;53.30
23550;DHT22;11953;49.010;8.608;2023-04-10T11:54:06;19.50;53.60
23550;DHT22;11953;49.010;8.608;2023-04-10T11:56:58;19.80;53.70
23550;DHT22;11953;49.010;8.608;2023-04-10T11:59:49;19.50;52.20
23550;DHT22;11953;49.010;8.608;2023-04-10T12:02:49;19.90;52.90
23550;DHT22;11953;49.010;8.608;2023-04-10T12:05:44;20.40;53.40
23550;DHT22;11953;49.010;8.608;2023-04-10T12:08:32;21.00;52.10
23550;DHT22;11953;49.010;8.608;2023-04-10T12:11:20;21.20;51.70
23550;DHT22;11953;49.010;8.608;2023-04-10T12:14:07;21.00;50.90
23550;DHT22;11953;49.010;8.608;2023-04-10T12:16:54;20.90;51.40
23550;DHT22;11953;49.010;8.608;2023-04-10T12:19:43;20.80;50.50
23550;DHT22;11953;49.010;8.608;2023-04-10T12:22:31;20.20;50.20
23550;DHT22;11953;49.010;8.608;2023-04-10T12:25:20;20.10;51.30
23550;DHT22;11953;49.010;8.608;2023-04-10T12:28:07;20.00;51.20
23550;DHT22;11953;49.010;8.608;2023-04-10T12:30:53;19.80;50.50
23550;DHT22;11953;49.010;8.608;2023-04-10T12:33:43;19.40;49.80
23550;DHT22;11953;49.010;8.608;2023-04-10T12:36:31;19.50;50.70
23550;DHT22;11953;49.010;8.608;2023-04-10T12:39:23;19.80;51.20
23550;DHT22;11953;49.010;8.608;2023-04-10T12:42:13;20.00;50.20
23550;DHT22;11953;49.010;8.608;2023-04-10T12:45:00;20.10;50.00
23550;DHT22;11953;49.010;8.608;2023-04-10T12:47:48;20.40;49.70
23550;DHT22;11953;49.010;8.608;2023-04-10T12:50:46;20.30;49.60
23550;DHT22;11953;49.010;8.608;2023-04-10T12:53:43;20.00;49.70
23550;DHT22;11953;49.010;8.608;2023-04-10T12:56:39;20.40;49.50
23550;DHT22;11953;49.010;8.608;2023-04-10T12:59:27;20.80;50.20
23550;DHT22;11953;49.010;8.608;2023-04-10T13:02:13;20.50;48.80
23550;DHT22;11953;49.010;8.608;2023-04-10T13:05:01;20.20;49.10
23550;DHT22;11953;49.010;8.608;2023-04-10T13:07:48;20.20;49.90
23550;DHT22;11953;49.010;8.608;2023-04-10T13:10:38;19.70;49.30
23550;DHT22;11953;49.010;8.608;2023-04-10T13:13:26;19.60;50.40
23550;DHT22;11953;49.010;8.608;2023-04-10T13:16:13;19.70;50.70
23550;DHT22;11953;49.010;8.608;2023-04-10T13:19:00;19.70;50.80
23550;DHT22;11953;49.010;8.608;2023-04-10T13:21:47;19.60;50.30
23550;DHT22;11953;49.010;8.608;2023-04-10T13:24:34;19.60;50.50
23550;DHT22;11953;49.010;8.608;2023-04-10T13:27:23;19.70;50.60
23550;DHT22;11953;49.010;8.608;2023-04-10T13:30:10;19.90;51.60
23550;DHT22;11953;49.010;8.608;2023-04-10T13:32:57;20.00;51.50
23550;DHT22;11953;49.010;8.608;2023-04-10T13:35:44;20.00;49.40
23550;DHT22;11953;49.010;8.608;2023-04-10T13:38:30;20.20;51.10
23550;DHT22;11953;49.010;8.608;2023-04-10T13:41:17;20.10;50.80
23550;DHT22;11953;49.010;8.608;2023-04-10T13:44:06;19.90;50.40
23550;DHT22;11953;49.010;8.608;2023-04-10T13:46:53;20.10;50.20
23550;DHT22;11953;49.010;8.608;2023-04-10T13:49:40;20.00;50.20
23550;DHT22;11953;49.010;8.608;2023-04-10T13:52:26;20.00;49.80
23550;DHT22;11953;49.010;8.608;2023-04-10T13:55:13;20.00;49.90
23550;DHT22;11953;49.010;8.608;2023-04-10T13:58:00;20.00;51.20
23550;DHT22;11953;49.010;8.608;2023-04-10T14:00:47;20.30;52.60
23550;DHT22;11953;49.010;8.608;2023-04-10T14:03:34;20.30;54.40
23550;DHT22;11953;49.010;8.608;2023-04-10T14:06:21;20.50;54.90
23550;DHT22;11953;49.010;8.608;2023-04-10T14:09:08;20.70;54.60
23550;DHT22;11953;49.010;8.608;2023-04-10T14:11:55;20.70;54.10
23550;DHT22;11953;49.010;8.608;2023-04-10T14:14:44;20.90;53.60
23550;DHT22;11953;49.010;8.608;2023-04-10T14:17:32;20.90;54.20
23550;DHT22;11953;49.010;8.608;2023-04-10T14:20:19;20.90;53.90
23550;DHT22;11953;49.010;8.608;2023-04-10T14:23:06;20.90;54.00
23550;DHT22;11953;49.010;8.608;2023-04-10T14:25:53;20.80;54.30
23550;DHT22;11953;49.010;8.608;2023-04-10T14:28:39;20.80;53.80
23550;DHT22;11953;49.010;8.608;2023-04-10T14:31:26;20.60;54.10
23550;DHT22;11953;49.010;8.608;2023-04-10T14:34:15;20.70;54.50
23550;DHT22;11953;49.010;8.608;2023-04-10T14:37:02;20.70;54.10
23550;DHT22;11953;49.010;8.608;2023-04-10T14:39:49;20.50;53.80
23550;DHT22;11953;49.010;8.608;2023-04-10T14:42:35;20.50;54.90
23550;DHT22;11953;49.010;8.608;2023-04-10T14:45:22;20.60;54.30
23550;DHT22;11953;49.010;8.608;2023-04-10T14:48:10;20.60;54.60
23550;DHT22;11953;49.010;8.608;2023-04-10T14:50:59;20.70;54.00
23550;DHT22;11953;49.010;8.608;2023-04-10T14:53:46;20.70;54.30
23550;DHT22;11953;49.010;8.608;2023-04-10T14:56:32;20.80;55.10
23550;DHT22;11953;49.010;8.608;2023-04-10T14:59:19;20.80;55.00
23550;DHT22;11953;49.010;8.608;2023-04-10T15:02:06;20.60;55.20
23550;DHT22;11953;49.010;8.608;2023-04-10T15:04:53;20.50;54.30
23550;DHT22;11953;49.010;8.608;2023-04-10T15:07:41;20.50;54.90
23550;DHT22;11953;49.010;8.608;2023-04-10T15:10:28;20.60;55.80
23550;DHT22;11953;49.010;8.608;2023-04-10T15:13:15;20.30;54.70
23550;DHT22;11953;49.010;8.608;2023-04-10T15:16:03;20.20;55.10
23550;DHT22;11953;49.010;8.608;2023-04-10T15:18:50;20.30;55.40
23550;DHT22;11953;49.010;8.608;2023-04-10T15:21:36;20.40;56.50
23550;DHT22;11953;49.010;8.608;2023-04-10T15:24:26;20.30;56.40
23550;DHT22;11953;49.010;8.608;2023-04-10T15:27:19;20.30;56.30
23550;DHT22;11953;49.010;8.608;2023-04-10T15:30:06;20.20;57.10
23550;DHT22;11953;49.010;8.608;2023-04-10T15:32:53;20.00;56.90
23550;DHT22;11953;49.010;8.608;2023-04-10T15:35:40;19.70;56.90
23550;DHT22;11953;49.010;8.608;2023-04-10T15:38:27;19.60;57.30
23550;DHT22;11953;49.010;8.608;2023-04-10T15:41:15;19.50;57.70
23550;DHT22;11953;49.010;8.608;2023-04-10T15:44:02;19.60;58.50
23550;DHT22;11953;49.010;8.608;2023-04-10T15:46:49;19.50;58.00
23550;DHT22;11953;49.010;8.608;2023-04-10T15:49:35;19.50;58.50
23550;DHT22;11953;49.010;8.608;2023-04-10T15:52:23;19.50;58.40
23550;DHT22;11953;49.010;8.608;2023-04-10T15:55:09;19.60;58.30
23550;DHT22;11953;49.010;8.608;2023-04-10T15:57:57;19.60;58.50
23550;DHT22;11953;49.010;8.608;2023-04-10T16:00:46;19.50;58.60
23550;DHT22;11953;49.010;8.608;2023-04-10T16:03:33;19.50;58.50
23550;DHT22;11953;49.010;8.608;2023-04-10T16:06:21;19.30;58.50
23550;DHT22;11953;49.010;8.608;2023-04-10T16:09:10;19.30;58.90
23550;DHT22;11953;49.010;8.608;2023-04-10T16:12:11;19.10;58.70
23550;DHT22;11953;49.010;8.608;2023-04-10T16:14:59;19.20;59.30
23550;DHT22;11953;49.010;8.608;2023-04-10T16:17:46;19.20;58.70
23550;DHT22;11953;49.010;8.608;2023-04-10T16:20:33;19.20;58.70
23550;DHT22;11953;49.010;8.608;2023-04-10T16:23:20;19.20;58.70
23550;DHT22;11953;49.010;8.608;2023-04-10T16:26:07;19.00;59.10
23550;DHT22;11953;49.010;8.608;2023-04-10T16:28:54;19.00;60.00
23550;DHT22;11953;49.010;8.608;2023-04-10T16:31:42;18.90;60.20
23550;DHT22;11953;49.010;8.608;2023-04-10T16:34:29;18.90;60.70
23550;DHT22;11953;49.010;8.608;2023-04-10T16:37:16;19.00;61.60
23550;DHT22;11953;49.010;8.608;2023-04-10T16:40:03;19.00;62.40
23550;DHT22;11953;49.010;8.608;2023-04-10T16:42:50;18.90;63.30
23550;DHT22;11953;49.010;8.608;2023-04-10T16:45:37;18.90;63.10
23550;DHT22;11953;49.010;8.608;2023-04-10T16:48:25;18.90;64.30
23550;DHT22;11953;49.010;8.608;2023-04-10T16:51:14;18.90;64.60
23550;DHT22;11953;49.010;8.608;2023-04-10T16:54:01;18.80;64.50
23550;DHT22;11953;49.010;8.608;2023-04-10T16:56:49;18.60;65.10
23550;DHT22;11953;49.010;8.608;2023-04-10T16:59:35;18.60;66.10
23550;DHT22;11953;49.010;8.608;2023-04-10T17:02:22;18.50;65.40
23550;DHT22;11953;49.010;8.608;2023-04-10T17:05:11;18.40;65.80
23550;DHT22;11953;49.010;8.608;2023-04-10T17:07:58;18.30;65.70
23550;DHT22;11953;49.010;8.608;2023-04-10T17:10:44;18.30;66.30
23550;DHT22;11953;49.010;8.608;2023-04-10T17:13:32;18.20;67.00
23550;DHT22;11953;49.010;8.608;2023-04-10T17:16:20;18.00;66.90
23550;DHT22;11953;49.010;8.608;2023-04-10T17:19:07;18.00;67.50
23550;DHT22;11953;49.010;8.608;2023-04-10T17:21:55;18.00;69.00
23550;DHT22;11953;49.010;8.608;2023-04-10T17:24:42;18.00;69.80
23550;DHT22;11953;49.010;8.608;2023-04-10T17:27:29;18.00;70.40
23550;DHT22;11953;49.010;8.608;2023-04-10T17:30:16;17.90;71.40
23550;DHT22;11953;49.010;8.608;2023-04-10T17:33:02;17.80;72.10
23550;DHT22;11953;49.010;8.608;2023-04-10T17:35:49;17.70;72.80
23550;DHT22;11953;49.010;8.608;2023-04-10T17:38:38;17.70;73.40
23550;DHT22;11953;49.010;8.608;2023-04-10T17:41:25;17.80;74.30
23550;DHT22;11953;49.010;8.608;2023-04-10T17:44:12;17.70;75.40
23550;DHT22;11953;49.010;8.608;2023-04-10T17:46:58;17.70;75.70
23550;DHT22;11953;49.010;8.608;2023-04-10T17:49:45;17.70;76.50
23550;DHT22;11953;49.010;8.608;2023-04-10T17:52:32;17.60;77.60
23550;DHT22;11953;49.010;8.608;2023-04-10T17:55:20;17.50;78.30
23550;DHT22;11953;49.010;8.608;2023-04-10T17:58:06;17.60;79.00
23550;DHT22;11953;49.010;8.608;2023-04-10T18:00:52;17.50;79.60
23550;DHT22;11953;49.010;8.608;2023-04-10T18:03:39;17.40;80.20